首页
METAR-TAF:

METAR-TAF

机场 :

勒图凯巴黎普拉日, 法国

纬度: 50-30-53N, 经度: 001-37-39E, 海拔: 6米

当前天气观测

该预报发布于21分钟前的18:30 UTC
风速5节,风向北转西北
温度 22°C
湿度 65%
气压 1022 hPa
能见度10公里或以上
1500米以下无云,无积雨云

METAR: LFAT 221830Z AUTO 33005KT CAVOK 22/15 Q1022

时间: 20:51 (18:51 UTC)

预报

该预报发布于4小时和51分钟前的14:00 UTC
预报有效从22日的 15点(UTC)到 22日的 24点(UTC)
风速7节,风向西北
能见度10公里或以上
1500米以下无云,无积雨云

TAF: LFAT 221400Z 2215/2224 31007KT CAVOK

超过4000个机场的气象观测和天气预报(METAR&TAF报告)。

可查询的气象台以黄色和红色小点在地图上表示。

将鼠标移到小点上方,可查看气象台名称。

然后点击查看天气观测和预报。

如需切换地图:点击带黑十字的绿色按钮放大地图;点击带横线的绿色按钮缩小地图;或者点击绿色箭头查看邻近地区的地图。


METAR-TAF: